sensor_id;sensor_type;location;lat;lon;timestamp;P1;durP1;ratioP1;P2;durP2;ratioP2
13071;SDS011;6602;58.934;11.166;2023-06-26T00:01:01;5.95;;;5.28;;
13071;SDS011;6602;58.934;11.166;2023-06-26T00:06:02;10.40;;;5.88;;
13071;SDS011;6602;58.934;11.166;2023-06-26T00:11:03;7.72;;;5.85;;
13071;SDS011;6602;58.934;11.166;2023-06-26T00:16:03;8.75;;;6.43;;
13071;SDS011;6602;58.934;11.166;2023-06-26T00:21:06;9.10;;;6.07;;
13071;SDS011;6602;58.934;11.166;2023-06-26T00:26:12;8.18;;;6.30;;
13071;SDS011;6602;58.934;11.166;2023-06-26T00:31:13;8.23;;;6.55;;
13071;SDS011;6602;58.934;11.166;2023-06-26T00:36:15;9.10;;;6.38;;
13071;SDS011;6602;58.934;11.166;2023-06-26T00:41:15;12.38;;;7.45;;
13071;SDS011;6602;58.934;11.166;2023-06-26T00:46:22;8.93;;;6.68;;
13071;SDS011;6602;58.934;11.166;2023-06-26T00:51:27;10.50;;;7.40;;
13071;SDS011;6602;58.934;11.166;2023-06-26T00:56:30;12.20;;;7.18;;
13071;SDS011;6602;58.934;11.166;2023-06-26T01:01:31;12.43;;;7.32;;
13071;SDS011;6602;58.934;11.166;2023-06-26T01:06:32;12.10;;;7.28;;
13071;SDS011;6602;58.934;11.166;2023-06-26T01:11:36;10.57;;;6.90;;
13071;SDS011;6602;58.934;11.166;2023-06-26T01:16:37;8.02;;;6.80;;
13071;SDS011;6602;58.934;11.166;2023-06-26T01:21:40;8.82;;;7.10;;
13071;SDS011;6602;58.934;11.166;2023-06-26T01:26:44;12.55;;;7.93;;
13071;SDS011;6602;58.934;11.166;2023-06-26T01:31:46;13.95;;;6.97;;
13071;SDS011;6602;58.934;11.166;2023-06-26T01:36:49;8.55;;;6.93;;
13071;SDS011;6602;58.934;11.166;2023-06-26T01:41:50;8.88;;;7.20;;
13071;SDS011;6602;58.934;11.166;2023-06-26T01:52:08;9.95;;;8.43;;
13071;SDS011;6602;58.934;11.166;2023-06-26T01:57:19;10.98;;;7.30;;
13071;SDS011;6602;58.934;11.166;2023-06-26T02:02:25;9.45;;;8.25;;
13071;SDS011;6602;58.934;11.166;2023-06-26T02:07:26;10.65;;;8.07;;
13071;SDS011;6602;58.934;11.166;2023-06-26T02:12:33;9.45;;;7.53;;
13071;SDS011;6602;58.934;11.166;2023-06-26T02:17:36;10.65;;;7.72;;
13071;SDS011;6602;58.934;11.166;2023-06-26T02:22:38;9.30;;;7.85;;
13071;SDS011;6602;58.934;11.166;2023-06-26T02:27:39;8.43;;;7.28;;
13071;SDS011;6602;58.934;11.166;2023-06-26T02:32:40;10.65;;;8.27;;
13071;SDS011;6602;58.934;11.166;2023-06-26T02:37:46;8.75;;;7.47;;
13071;SDS011;6602;58.934;11.166;2023-06-26T02:42:47;9.15;;;7.63;;
13071;SDS011;6602;58.934;11.166;2023-06-26T02:47:52;11.98;;;8.35;;
13071;SDS011;6602;58.934;11.166;2023-06-26T02:52:56;8.88;;;7.50;;
13071;SDS011;6602;58.934;11.166;2023-06-26T02:58:02;12.63;;;8.13;;
13071;SDS011;6602;58.934;11.166;2023-06-26T03:03:18;10.55;;;8.23;;
13071;SDS011;6602;58.934;11.166;2023-06-26T03:08:22;14.63;;;8.02;;
13071;SDS011;6602;58.934;11.166;2023-06-26T03:13:33;9.18;;;8.00;;
13071;SDS011;6602;58.934;11.166;2023-06-26T03:18:38;8.95;;;7.50;;
13071;SDS011;6602;58.934;11.166;2023-06-26T03:23:45;8.88;;;7.50;;
13071;SDS011;6602;58.934;11.166;2023-06-26T03:28:49;9.52;;;7.63;;
13071;SDS011;6602;58.934;11.166;2023-06-26T03:34:02;9.52;;;7.57;;
13071;SDS011;6602;58.934;11.166;2023-06-26T03:39:03;9.93;;;7.97;;
13071;SDS011;6602;58.934;11.166;2023-06-26T03:44:04;9.07;;;7.65;;
13071;SDS011;6602;58.934;11.166;2023-06-26T03:49:07;10.10;;;7.93;;
13071;SDS011;6602;58.934;11.166;2023-06-26T03:54:08;10.07;;;7.53;;
13071;SDS011;6602;58.934;11.166;2023-06-26T03:59:12;8.32;;;7.30;;
13071;SDS011;6602;58.934;11.166;2023-06-26T04:04:13;7.13;;;6.43;;
13071;SDS011;6602;58.934;11.166;2023-06-26T04:09:16;6.35;;;5.30;;
13071;SDS011;6602;58.934;11.166;2023-06-26T04:14:17;6.72;;;5.45;;
13071;SDS011;6602;58.934;11.166;2023-06-26T04:19:21;5.72;;;4.70;;
13071;SDS011;6602;58.934;11.166;2023-06-26T04:24:22;6.65;;;4.57;;
13071;SDS011;6602;58.934;11.166;2023-06-26T04:29:26;4.63;;;3.80;;
13071;SDS011;6602;58.934;11.166;2023-06-26T04:34:30;5.25;;;4.07;;
13071;SDS011;6602;58.934;11.166;2023-06-26T04:39:34;4.20;;;3.63;;
13071;SDS011;6602;58.934;11.166;2023-06-26T04:44:37;3.25;;;2.60;;
13071;SDS011;6602;58.934;11.166;2023-06-26T04:49:42;2.83;;;2.63;;
13071;SDS011;6602;58.934;11.166;2023-06-26T04:54:46;4.22;;;3.40;;
13071;SDS011;6602;58.934;11.166;2023-06-26T04:59:47;3.75;;;3.20;;
13071;SDS011;6602;58.934;11.166;2023-06-26T05:04:48;5.55;;;3.75;;
13071;SDS011;6602;58.934;11.166;2023-06-26T05:09:52;4.22;;;3.40;;
13071;SDS011;6602;58.934;11.166;2023-06-26T05:14:52;3.10;;;2.80;;
13071;SDS011;6602;58.934;11.166;2023-06-26T05:19:54;3.63;;;3.30;;
13071;SDS011;6602;58.934;11.166;2023-06-26T05:24:54;4.45;;;3.10;;
13071;SDS011;6602;58.934;11.166;2023-06-26T05:30:01;3.38;;;2.97;;
13071;SDS011;6602;58.934;11.166;2023-06-26T05:35:03;3.75;;;2.63;;
13071;SDS011;6602;58.934;11.166;2023-06-26T05:40:08;5.90;;;3.17;;
13071;SDS011;6602;58.934;11.166;2023-06-26T05:45:09;3.85;;;2.85;;
13071;SDS011;6602;58.934;11.166;2023-06-26T05:50:13;6.00;;;3.70;;
13071;SDS011;6602;58.934;11.166;2023-06-26T05:55:15;4.70;;;3.50;;
13071;SDS011;6602;58.934;11.166;2023-06-26T06:00:19;3.70;;;2.97;;
13071;SDS011;6602;58.934;11.166;2023-06-26T06:05:23;5.70;;;3.90;;
13071;SDS011;6602;58.934;11.166;2023-06-26T06:10:36;4.35;;;3.95;;
13071;SDS011;6602;58.934;11.166;2023-06-26T06:15:38;4.80;;;4.20;;
13071;SDS011;6602;58.934;11.166;2023-06-26T06:20:39;4.90;;;4.13;;
13071;SDS011;6602;58.934;11.166;2023-06-26T06:25:40;4.60;;;3.88;;
13071;SDS011;6602;58.934;11.166;2023-06-26T06:30:45;5.43;;;4.22;;
13071;SDS011;6602;58.934;11.166;2023-06-26T06:35:47;5.68;;;4.20;;
13071;SDS011;6602;58.934;11.166;2023-06-26T06:40:51;5.55;;;4.47;;
13071;SDS011;6602;58.934;11.166;2023-06-26T06:45:59;6.03;;;4.57;;
13071;SDS011;6602;58.934;11.166;2023-06-26T06:51:04;5.95;;;4.88;;
13071;SDS011;6602;58.934;11.166;2023-06-26T06:56:04;5.10;;;4.25;;
13071;SDS011;6602;58.934;11.166;2023-06-26T07:01:07;4.18;;;3.78;;
13071;SDS011;6602;58.934;11.166;2023-06-26T07:06:11;6.13;;;4.68;;
13071;SDS011;6602;58.934;11.166;2023-06-26T07:11:12;4.93;;;4.20;;
13071;SDS011;6602;58.934;11.166;2023-06-26T07:16:16;5.10;;;4.30;;
13071;SDS011;6602;58.934;11.166;2023-06-26T07:21:19;6.75;;;3.97;;
13071;SDS011;6602;58.934;11.166;2023-06-26T07:26:20;4.68;;;4.22;;
13071;SDS011;6602;58.934;11.166;2023-06-26T07:31:22;5.45;;;3.80;;
13071;SDS011;6602;58.934;11.166;2023-06-26T07:36:23;4.22;;;3.83;;
13071;SDS011;6602;58.934;11.166;2023-06-26T07:41:24;4.25;;;3.85;;
13071;SDS011;6602;58.934;11.166;2023-06-26T07:46:25;4.43;;;3.50;;
13071;SDS011;6602;58.934;11.166;2023-06-26T07:51:26;3.88;;;3.47;;
13071;SDS011;6602;58.934;11.166;2023-06-26T07:56:29;3.67;;;3.33;;
13071;SDS011;6602;58.934;11.166;2023-06-26T08:01:31;2.95;;;2.75;;
13071;SDS011;6602;58.934;11.166;2023-06-26T08:06:34;3.00;;;2.80;;
13071;SDS011;6602;58.934;11.166;2023-06-26T08:11:38;3.03;;;2.70;;
13071;SDS011;6602;58.934;11.166;2023-06-26T08:16:44;2.60;;;2.40;;
13071;SDS011;6602;58.934;11.166;2023-06-26T08:21:45;2.80;;;2.60;;
13071;SDS011;6602;58.934;11.166;2023-06-26T08:26:48;3.63;;;3.30;;
13071;SDS011;6602;58.934;11.166;2023-06-26T08:31:49;4.10;;;2.80;;
13071;SDS011;6602;58.934;11.166;2023-06-26T08:36:50;4.55;;;2.75;;
13071;SDS011;6602;58.934;11.166;2023-06-26T08:41:51;3.00;;;2.70;;
13071;SDS011;6602;58.934;11.166;2023-06-26T08:46:53;2.67;;;2.47;;
13071;SDS011;6602;58.934;11.166;2023-06-26T08:52:02;4.70;;;2.80;;
13071;SDS011;6602;58.934;11.166;2023-06-26T08:57:11;2.97;;;2.50;;
13071;SDS011;6602;58.934;11.166;2023-06-26T09:02:14;2.65;;;2.45;;
13071;SDS011;6602;58.934;11.166;2023-06-26T09:07:17;2.88;;;2.58;;
13071;SDS011;6602;58.934;11.166;2023-06-26T09:12:31;3.22;;;2.40;;
13071;SDS011;6602;58.934;11.166;2023-06-26T09:17:41;2.40;;;2.20;;
13071;SDS011;6602;58.934;11.166;2023-06-26T09:22:48;3.38;;;2.90;;
13071;SDS011;6602;58.934;11.166;2023-06-26T09:27:50;2.72;;;2.53;;
13071;SDS011;6602;58.934;11.166;2023-06-26T09:32:56;3.47;;;2.75;;
13071;SDS011;6602;58.934;11.166;2023-06-26T09:37:57;3.20;;;2.80;;
13071;SDS011;6602;58.934;11.166;2023-06-26T09:43:04;3.45;;;3.15;;
13071;SDS011;6602;58.934;11.166;2023-06-26T09:48:13;3.70;;;3.40;;
13071;SDS011;6602;58.934;11.166;2023-06-26T09:53:14;3.33;;;3.00;;
13071;SDS011;6602;58.934;11.166;2023-06-26T09:58:24;3.38;;;2.95;;
13071;SDS011;6602;58.934;11.166;2023-06-26T10:03:31;3.17;;;2.80;;
13071;SDS011;6602;58.934;11.166;2023-06-26T10:08:41;2.63;;;2.42;;
13071;SDS011;6602;58.934;11.166;2023-06-26T10:13:49;4.68;;;3.10;;
13071;SDS011;6602;58.934;11.166;2023-06-26T10:18:53;3.20;;;2.90;;
13071;SDS011;6602;58.934;11.166;2023-06-26T10:23:57;2.90;;;2.60;;
13071;SDS011;6602;58.934;11.166;2023-06-26T10:28:59;3.00;;;2.60;;
13071;SDS011;6602;58.934;11.166;2023-06-26T10:34:01;3.20;;;2.90;;
13071;SDS011;6602;58.934;11.166;2023-06-26T10:39:04;5.28;;;3.00;;
13071;SDS011;6602;58.934;11.166;2023-06-26T10:44:10;3.10;;;2.80;;
13071;SDS011;6602;58.934;11.166;2023-06-26T10:49:16;4.03;;;2.97;;
13071;SDS011;6602;58.934;11.166;2023-06-26T10:54:20;5.53;;;3.25;;
13071;SDS011;6602;58.934;11.166;2023-06-26T10:59:39;2.92;;;2.67;;
13071;SDS011;6602;58.934;11.166;2023-06-26T11:04:45;3.22;;;2.88;;
13071;SDS011;6602;58.934;11.166;2023-06-26T11:15:15;2.60;;;2.40;;
13071;SDS011;6602;58.934;11.166;2023-06-26T11:20:17;3.55;;;2.72;;
13071;SDS011;6602;58.934;11.166;2023-06-26T11:25:27;2.58;;;2.30;;
13071;SDS011;6602;58.934;11.166;2023-06-26T11:30:29;4.13;;;2.13;;
13071;SDS011;6602;58.934;11.166;2023-06-26T11:35:32;4.82;;;1.90;;
13071;SDS011;6602;58.934;11.166;2023-06-26T11:40:36;2.95;;;1.80;;
13071;SDS011;6602;58.934;11.166;2023-06-26T11:45:43;2.45;;;2.05;;
13071;SDS011;6602;58.934;11.166;2023-06-26T11:51:06;2.38;;;1.90;;
13071;SDS011;6602;58.934;11.166;2023-06-26T11:56:16;2.47;;;2.00;;
13071;SDS011;6602;58.934;11.166;2023-06-26T12:01:25;2.20;;;2.00;;
13071;SDS011;6602;58.934;11.166;2023-06-26T12:12:40;3.78;;;2.25;;
13071;SDS011;6602;58.934;11.166;2023-06-26T12:17:47;2.72;;;1.77;;
13071;SDS011;6602;58.934;11.166;2023-06-26T12:22:51;2.42;;;1.98;;
13071;SDS011;6602;58.934;11.166;2023-06-26T12:27:55;3.17;;;2.00;;
13071;SDS011;6602;58.934;11.166;2023-06-26T12:32:56;2.38;;;1.70;;
13071;SDS011;6602;58.934;11.166;2023-06-26T12:37:57;2.20;;;1.70;;
13071;SDS011;6602;58.934;11.166;2023-06-26T12:42:58;3.13;;;1.80;;
13071;SDS011;6602;58.934;11.166;2023-06-26T12:48:12;2.05;;;1.85;;
13071;SDS011;6602;58.934;11.166;2023-06-26T12:53:13;2.38;;;2.17;;
13071;SDS011;6602;58.934;11.166;2023-06-26T12:58:14;3.80;;;2.10;;
13071;SDS011;6602;58.934;11.166;2023-06-26T13:08:21;3.30;;;2.78;;
13071;SDS011;6602;58.934;11.166;2023-06-26T13:13:25;6.43;;;2.70;;
13071;SDS011;6602;58.934;11.166;2023-06-26T13:18:26;4.38;;;2.28;;
13071;SDS011;6602;58.934;11.166;2023-06-26T13:23:28;3.05;;;2.75;;
13071;SDS011;6602;58.934;11.166;2023-06-26T13:28:29;4.07;;;3.17;;
13071;SDS011;6602;58.934;11.166;2023-06-26T13:33:33;2.92;;;2.60;;
13071;SDS011;6602;58.934;11.166;2023-06-26T13:38:34;4.28;;;2.45;;
13071;SDS011;6602;58.934;11.166;2023-06-26T13:43:53;5.35;;;2.90;;
13071;SDS011;6602;58.934;11.166;2023-06-26T13:48:56;13.88;;;4.30;;
13071;SDS011;6602;58.934;11.166;2023-06-26T13:54:09;6.13;;;3.38;;
13071;SDS011;6602;58.934;11.166;2023-06-26T13:59:13;4.32;;;3.20;;
13071;SDS011;6602;58.934;11.166;2023-06-26T14:04:17;11.35;;;4.10;;
13071;SDS011;6602;58.934;11.166;2023-06-26T14:09:18;11.98;;;4.05;;
13071;SDS011;6602;58.934;11.166;2023-06-26T14:14:19;10.20;;;4.47;;
13071;SDS011;6602;58.934;11.166;2023-06-26T14:19:20;17.88;;;4.82;;
13071;SDS011;6602;58.934;11.166;2023-06-26T14:24:23;20.17;;;3.97;;
13071;SDS011;6602;58.934;11.166;2023-06-26T14:29:28;14.30;;;3.63;;
13071;SDS011;6602;58.934;11.166;2023-06-26T14:34:37;10.30;;;3.60;;
13071;SDS011;6602;58.934;11.166;2023-06-26T14:39:44;4.60;;;2.50;;
13071;SDS011;6602;58.934;11.166;2023-06-26T14:44:47;5.47;;;2.67;;
13071;SDS011;6602;58.934;11.166;2023-06-26T14:49:56;4.32;;;2.08;;
13071;SDS011;6602;58.934;11.166;2023-06-26T14:55:01;4.00;;;1.75;;
13071;SDS011;6602;58.934;11.166;2023-06-26T15:00:07;4.60;;;1.70;;
13071;SDS011;6602;58.934;11.166;2023-06-26T15:05:12;3.80;;;1.60;;
13071;SDS011;6602;58.934;11.166;2023-06-26T15:10:20;6.15;;;1.70;;
13071;SDS011;6602;58.934;11.166;2023-06-26T15:15:23;2.88;;;1.30;;
13071;SDS011;6602;58.934;11.166;2023-06-26T15:20:25;5.22;;;1.40;;
13071;SDS011;6602;58.934;11.166;2023-06-26T15:25:28;3.90;;;1.65;;
13071;SDS011;6602;58.934;11.166;2023-06-26T15:30:35;4.43;;;1.70;;
13071;SDS011;6602;58.934;11.166;2023-06-26T15:35:36;4.78;;;2.17;;
13071;SDS011;6602;58.934;11.166;2023-06-26T15:40:36;2.22;;;1.27;;
13071;SDS011;6602;58.934;11.166;2023-06-26T15:45:39;4.47;;;1.90;;
13071;SDS011;6602;58.934;11.166;2023-06-26T15:50:41;6.50;;;1.80;;
13071;SDS011;6602;58.934;11.166;2023-06-26T15:55:45;3.72;;;1.67;;
13071;SDS011;6602;58.934;11.166;2023-06-26T16:00:47;2.72;;;1.60;;
13071;SDS011;6602;58.934;11.166;2023-06-26T16:05:48;2.78;;;1.73;;
13071;SDS011;6602;58.934;11.166;2023-06-26T16:10:54;3.15;;;1.88;;
13071;SDS011;6602;58.934;11.166;2023-06-26T16:15:57;4.20;;;1.80;;
13071;SDS011;6602;58.934;11.166;2023-06-26T16:20:58;3.10;;;1.63;;
13071;SDS011;6602;58.934;11.166;2023-06-26T16:25:59;2.92;;;1.92;;
13071;SDS011;6602;58.934;11.166;2023-06-26T16:31:03;2.85;;;1.50;;
13071;SDS011;6602;58.934;11.166;2023-06-26T16:36:03;2.40;;;1.63;;
13071;SDS011;6602;58.934;11.166;2023-06-26T16:41:11;1.95;;;1.48;;
13071;SDS011;6602;58.934;11.166;2023-06-26T16:46:12;2.30;;;1.52;;
13071;SDS011;6602;58.934;11.166;2023-06-26T16:51:13;2.60;;;1.60;;
13071;SDS011;6602;58.934;11.166;2023-06-26T16:56:16;3.40;;;1.40;;
13071;SDS011;6602;58.934;11.166;2023-06-26T17:01:17;2.40;;;1.65;;
13071;SDS011;6602;58.934;11.166;2023-06-26T17:06:17;1.48;;;1.38;;
13071;SDS011;6602;58.934;11.166;2023-06-26T17:11:20;4.35;;;1.63;;
13071;SDS011;6602;58.934;11.166;2023-06-26T17:16:21;7.80;;;2.03;;
13071;SDS011;6602;58.934;11.166;2023-06-26T17:21:25;2.78;;;1.80;;
13071;SDS011;6602;58.934;11.166;2023-06-26T17:26:29;4.22;;;1.98;;
13071;SDS011;6602;58.934;11.166;2023-06-26T17:31:35;4.65;;;1.63;;
13071;SDS011;6602;58.934;11.166;2023-06-26T17:36:37;4.38;;;1.63;;
13071;SDS011;6602;58.934;11.166;2023-06-26T17:41:38;5.03;;;2.05;;
13071;SDS011;6602;58.934;11.166;2023-06-26T17:46:55;4.65;;;1.65;;
13071;SDS011;6602;58.934;11.166;2023-06-26T17:52:00;3.58;;;1.42;;
13071;SDS011;6602;58.934;11.166;2023-06-26T17:57:02;7.20;;;1.65;;
13071;SDS011;6602;58.934;11.166;2023-06-26T18:02:05;2.25;;;1.30;;
13071;SDS011;6602;58.934;11.166;2023-06-26T18:07:18;2.53;;;1.45;;
13071;SDS011;6602;58.934;11.166;2023-06-26T18:12:22;2.63;;;1.40;;
13071;SDS011;6602;58.934;11.166;2023-06-26T18:17:23;2.03;;;1.33;;
13071;SDS011;6602;58.934;11.166;2023-06-26T18:22:28;3.35;;;1.50;;
13071;SDS011;6602;58.934;11.166;2023-06-26T18:27:33;1.50;;;1.40;;
13071;SDS011;6602;58.934;11.166;2023-06-26T18:32:35;2.35;;;1.52;;
13071;SDS011;6602;58.934;11.166;2023-06-26T18:37:36;3.92;;;1.75;;
13071;SDS011;6602;58.934;11.166;2023-06-26T18:42:41;4.05;;;1.92;;
13071;SDS011;6602;58.934;11.166;2023-06-26T18:47:43;5.22;;;2.25;;
13071;SDS011;6602;58.934;11.166;2023-06-26T18:52:46;3.67;;;1.83;;
13071;SDS011;6602;58.934;11.166;2023-06-26T18:57:47;6.82;;;2.50;;
13071;SDS011;6602;58.934;11.166;2023-06-26T19:02:49;6.30;;;1.92;;
13071;SDS011;6602;58.934;11.166;2023-06-26T19:07:51;3.63;;;2.40;;
13071;SDS011;6602;58.934;11.166;2023-06-26T19:12:56;4.57;;;2.38;;
13071;SDS011;6602;58.934;11.166;2023-06-26T19:18:02;5.18;;;2.35;;
13071;SDS011;6602;58.934;11.166;2023-06-26T19:23:04;4.55;;;2.00;;
13071;SDS011;6602;58.934;11.166;2023-06-26T19:28:06;3.95;;;2.10;;
13071;SDS011;6602;58.934;11.166;2023-06-26T19:33:12;5.40;;;2.20;;
13071;SDS011;6602;58.934;11.166;2023-06-26T19:38:13;2.90;;;2.20;;
13071;SDS011;6602;58.934;11.166;2023-06-26T19:43:14;3.35;;;2.15;;
13071;SDS011;6602;58.934;11.166;2023-06-26T19:48:15;2.58;;;2.35;;
13071;SDS011;6602;58.934;11.166;2023-06-26T19:53:18;6.30;;;2.80;;
13071;SDS011;6602;58.934;11.166;2023-06-26T19:58:22;3.25;;;2.55;;
13071;SDS011;6602;58.934;11.166;2023-06-26T20:03:24;4.78;;;2.40;;
13071;SDS011;6602;58.934;11.166;2023-06-26T20:08:25;6.10;;;2.15;;
13071;SDS011;6602;58.934;11.166;2023-06-26T20:13:28;3.63;;;2.55;;
13071;SDS011;6602;58.934;11.166;2023-06-26T20:18:29;3.85;;;2.10;;
13071;SDS011;6602;58.934;11.166;2023-06-26T20:23:32;3.50;;;2.05;;
13071;SDS011;6602;58.934;11.166;2023-06-26T20:28:33;2.83;;;2.28;;
13071;SDS011;6602;58.934;11.166;2023-06-26T20:33:40;3.15;;;2.15;;
13071;SDS011;6602;58.934;11.166;2023-06-26T20:38:44;3.60;;;2.10;;
13071;SDS011;6602;58.934;11.166;2023-06-26T20:43:46;3.15;;;2.40;;
13071;SDS011;6602;58.934;11.166;2023-06-26T20:48:50;2.70;;;2.17;;
13071;SDS011;6602;58.934;11.166;2023-06-26T20:53:52;3.53;;;2.17;;
13071;SDS011;6602;58.934;11.166;2023-06-26T20:58:54;3.75;;;2.42;;
13071;SDS011;6602;58.934;11.166;2023-06-26T21:03:55;4.53;;;2.67;;
13071;SDS011;6602;58.934;11.166;2023-06-26T21:08:56;3.72;;;2.58;;
13071;SDS011;6602;58.934;11.166;2023-06-26T21:14:00;3.65;;;2.38;;
13071;SDS011;6602;58.934;11.166;2023-06-26T21:19:00;4.45;;;3.00;;
13071;SDS011;6602;58.934;11.166;2023-06-26T21:24:02;3.05;;;2.40;;
13071;SDS011;6602;58.934;11.166;2023-06-26T21:29:06;3.28;;;2.90;;
13071;SDS011;6602;58.934;11.166;2023-06-26T21:34:13;3.80;;;2.90;;
13071;SDS011;6602;58.934;11.166;2023-06-26T21:39:14;3.28;;;2.40;;
13071;SDS011;6602;58.934;11.166;2023-06-26T21:44:15;4.13;;;2.70;;
13071;SDS011;6602;58.934;11.166;2023-06-26T21:49:16;5.40;;;3.17;;
13071;SDS011;6602;58.934;11.166;2023-06-26T21:54:17;4.90;;;3.03;;
13071;SDS011;6602;58.934;11.166;2023-06-26T21:59:19;5.18;;;3.42;;
13071;SDS011;6602;58.934;11.166;2023-06-26T22:04:22;5.53;;;3.33;;
13071;SDS011;6602;58.934;11.166;2023-06-26T22:09:25;6.60;;;3.17;;
13071;SDS011;6602;58.934;11.166;2023-06-26T22:14:25;5.63;;;3.35;;
13071;SDS011;6602;58.934;11.166;2023-06-26T22:19:26;4.15;;;3.30;;
13071;SDS011;6602;58.934;11.166;2023-06-26T22:24:27;4.78;;;3.28;;
13071;SDS011;6602;58.934;11.166;2023-06-26T22:29:28;3.70;;;3.30;;
13071;SDS011;6602;58.934;11.166;2023-06-26T22:34:29;4.18;;;3.42;;
13071;SDS011;6602;58.934;11.166;2023-06-26T22:39:31;5.47;;;3.35;;
13071;SDS011;6602;58.934;11.166;2023-06-26T22:44:32;8.45;;;3.20;;
13071;SDS011;6602;58.934;11.166;2023-06-26T22:49:33;3.55;;;2.80;;
13071;SDS011;6602;58.934;11.166;2023-06-26T22:54:34;4.68;;;2.80;;
13071;SDS011;6602;58.934;11.166;2023-06-26T22:59:40;3.53;;;3.10;;
13071;SDS011;6602;58.934;11.166;2023-06-26T23:04:41;3.38;;;2.63;;
13071;SDS011;6602;58.934;11.166;2023-06-26T23:09:50;4.55;;;2.30;;
13071;SDS011;6602;58.934;11.166;2023-06-26T23:14:51;2.97;;;2.47;;
13071;SDS011;6602;58.934;11.166;2023-06-26T23:19:52;3.65;;;2.50;;
13071;SDS011;6602;58.934;11.166;2023-06-26T23:24:53;7.60;;;2.60;;
13071;SDS011;6602;58.934;11.166;2023-06-26T23:29:57;3.05;;;2.75;;
13071;SDS011;6602;58.934;11.166;2023-06-26T23:34:58;4.82;;;2.65;;
13071;SDS011;6602;58.934;11.166;2023-06-26T23:39:59;3.45;;;2.60;;
13071;SDS011;6602;58.934;11.166;2023-06-26T23:44:59;4.78;;;2.70;;
13071;SDS011;6602;58.934;11.166;2023-06-26T23:50:01;5.63;;;2.83;;
13071;SDS011;6602;58.934;11.166;2023-06-26T23:55:02;7.03;;;2.88;;
